sensor_id;sensor_type;location;lat;lon;timestamp;temperature;humidity
50969;DHT22;36982;51.474;7.228;2022-07-22T00:01:31;17.00;99.90
50969;DHT22;36982;51.474;7.228;2022-07-22T00:03:57;16.90;99.90
50969;DHT22;36982;51.474;7.228;2022-07-22T00:06:23;16.90;99.90
50969;DHT22;36982;51.474;7.228;2022-07-22T00:08:48;16.90;99.90
50969;DHT22;36982;51.474;7.228;2022-07-22T00:11:14;16.80;99.90
50969;DHT22;36982;51.474;7.228;2022-07-22T00:13:40;16.80;99.90
50969;DHT22;36982;51.474;7.228;2022-07-22T00:16:06;16.80;99.90
50969;DHT22;36982;51.474;7.228;2022-07-22T00:18:32;16.70;99.90
50969;DHT22;36982;51.474;7.228;2022-07-22T00:20:58;16.70;99.90
50969;DHT22;36982;51.474;7.228;2022-07-22T00:23:23;16.70;99.90
50969;DHT22;36982;51.474;7.228;2022-07-22T00:25:49;16.70;99.90
50969;DHT22;36982;51.474;7.228;2022-07-22T00:28:15;16.70;99.90
50969;DHT22;36982;51.474;7.228;2022-07-22T00:30:40;16.80;99.90
50969;DHT22;36982;51.474;7.228;2022-07-22T00:33:06;16.80;99.90
50969;DHT22;36982;51.474;7.228;2022-07-22T00:35:32;16.80;99.90
50969;DHT22;36982;51.474;7.228;2022-07-22T00:37:57;16.90;99.90
50969;DHT22;36982;51.474;7.228;2022-07-22T00:40:23;16.90;99.90
50969;DHT22;36982;51.474;7.228;2022-07-22T00:42:49;17.00;99.90
50969;DHT22;36982;51.474;7.228;2022-07-22T00:45:15;17.00;99.90
50969;DHT22;36982;51.474;7.228;2022-07-22T00:47:40;16.90;99.90
50969;DHT22;36982;51.474;7.228;2022-07-22T00:50:07;17.00;99.90
50969;DHT22;36982;51.474;7.228;2022-07-22T00:52:34;17.00;99.90
50969;DHT22;36982;51.474;7.228;2022-07-22T00:55:00;17.00;99.90
50969;DHT22;36982;51.474;7.228;2022-07-22T00:57:27;17.10;99.90
50969;DHT22;36982;51.474;7.228;2022-07-22T00:59:53;17.10;99.90
50969;DHT22;36982;51.474;7.228;2022-07-22T01:02:18;17.00;99.90
50969;DHT22;36982;51.474;7.228;2022-07-22T01:04:44;17.10;99.90
50969;DHT22;36982;51.474;7.228;2022-07-22T01:07:10;17.10;99.90
50969;DHT22;36982;51.474;7.228;2022-07-22T01:09:36;17.20;99.90
50969;DHT22;36982;51.474;7.228;2022-07-22T01:12:02;17.10;99.90
50969;DHT22;36982;51.474;7.228;2022-07-22T01:14:28;17.10;99.90
50969;DHT22;36982;51.474;7.228;2022-07-22T01:16:54;17.10;99.90
50969;DHT22;36982;51.474;7.228;2022-07-22T01:19:19;17.00;99.90
50969;DHT22;36982;51.474;7.228;2022-07-22T01:21:45;16.90;99.90
50969;DHT22;36982;51.474;7.228;2022-07-22T01:24:11;16.90;99.90
50969;DHT22;36982;51.474;7.228;2022-07-22T01:26:36;16.90;99.90
50969;DHT22;36982;51.474;7.228;2022-07-22T01:29:03;16.90;99.90
50969;DHT22;36982;51.474;7.228;2022-07-22T01:31:29;16.90;99.90
50969;DHT22;36982;51.474;7.228;2022-07-22T01:33:55;16.80;99.90
50969;DHT22;36982;51.474;7.228;2022-07-22T01:36:21;16.80;99.90
50969;DHT22;36982;51.474;7.228;2022-07-22T01:38:47;16.90;99.90
50969;DHT22;36982;51.474;7.228;2022-07-22T01:41:12;16.90;99.90
50969;DHT22;36982;51.474;7.228;2022-07-22T01:43:39;16.90;99.90
50969;DHT22;36982;51.474;7.228;2022-07-22T01:46:05;16.90;99.90
50969;DHT22;36982;51.474;7.228;2022-07-22T01:48:30;17.00;99.90
50969;DHT22;36982;51.474;7.228;2022-07-22T01:50:56;17.00;99.90
50969;DHT22;36982;51.474;7.228;2022-07-22T01:53:22;16.90;99.90
50969;DHT22;36982;51.474;7.228;2022-07-22T01:55:48;17.00;99.90
50969;DHT22;36982;51.474;7.228;2022-07-22T01:58:14;17.00;99.90
50969;DHT22;36982;51.474;7.228;2022-07-22T02:00:40;17.00;99.90
50969;DHT22;36982;51.474;7.228;2022-07-22T02:03:06;16.90;99.90
50969;DHT22;36982;51.474;7.228;2022-07-22T02:05:32;16.90;99.90
50969;DHT22;36982;51.474;7.228;2022-07-22T02:08:05;17.00;99.90
50969;DHT22;36982;51.474;7.228;2022-07-22T02:10:31;16.90;99.90
50969;DHT22;36982;51.474;7.228;2022-07-22T02:12:58;16.90;99.90
50969;DHT22;36982;51.474;7.228;2022-07-22T02:15:24;17.00;99.90
50969;DHT22;36982;51.474;7.228;2022-07-22T02:17:50;17.00;99.90
50969;DHT22;36982;51.474;7.228;2022-07-22T02:20:16;17.00;99.90
50969;DHT22;36982;51.474;7.228;2022-07-22T02:22:42;17.00;99.90
50969;DHT22;36982;51.474;7.228;2022-07-22T02:25:07;17.10;99.90
50969;DHT22;36982;51.474;7.228;2022-07-22T02:27:34;17.10;99.90
50969;DHT22;36982;51.474;7.228;2022-07-22T02:29:59;17.10;99.90
50969;DHT22;36982;51.474;7.228;2022-07-22T02:32:25;17.20;99.90
50969;DHT22;36982;51.474;7.228;2022-07-22T02:34:51;17.20;99.90
50969;DHT22;36982;51.474;7.228;2022-07-22T02:37:16;17.20;99.90
50969;DHT22;36982;51.474;7.228;2022-07-22T02:39:42;17.20;99.90
50969;DHT22;36982;51.474;7.228;2022-07-22T02:42:07;17.20;99.90
50969;DHT22;36982;51.474;7.228;2022-07-22T02:44:33;17.20;99.90
50969;DHT22;36982;51.474;7.228;2022-07-22T02:46:59;17.20;99.90
50969;DHT22;36982;51.474;7.228;2022-07-22T02:49:25;17.20;99.90
50969;DHT22;36982;51.474;7.228;2022-07-22T02:51:50;17.10;99.90
50969;DHT22;36982;51.474;7.228;2022-07-22T02:54:16;17.20;99.90
50969;DHT22;36982;51.474;7.228;2022-07-22T02:56:42;17.10;99.90
50969;DHT22;36982;51.474;7.228;2022-07-22T02:59:07;17.00;99.90
50969;DHT22;36982;51.474;7.228;2022-07-22T03:01:33;17.00;99.90
50969;DHT22;36982;51.474;7.228;2022-07-22T03:03:59;17.00;99.90
50969;DHT22;36982;51.474;7.228;2022-07-22T03:06:24;17.00;99.90
50969;DHT22;36982;51.474;7.228;2022-07-22T03:08:50;17.00;99.90
50969;DHT22;36982;51.474;7.228;2022-07-22T03:11:16;16.80;99.90
50969;DHT22;36982;51.474;7.228;2022-07-22T03:13:41;16.60;99.90
50969;DHT22;36982;51.474;7.228;2022-07-22T03:16:07;16.60;99.90
50969;DHT22;36982;51.474;7.228;2022-07-22T03:18:34;16.50;99.90
50969;DHT22;36982;51.474;7.228;2022-07-22T03:21:00;16.30;99.90
50969;DHT22;36982;51.474;7.228;2022-07-22T03:23:25;16.30;99.90
50969;DHT22;36982;51.474;7.228;2022-07-22T03:25:51;16.30;99.90
50969;DHT22;36982;51.474;7.228;2022-07-22T03:28:17;16.20;99.90
50969;DHT22;36982;51.474;7.228;2022-07-22T03:30:42;16.30;99.90
50969;DHT22;36982;51.474;7.228;2022-07-22T03:33:08;16.30;99.90
50969;DHT22;36982;51.474;7.228;2022-07-22T03:35:34;16.40;99.90
50969;DHT22;36982;51.474;7.228;2022-07-22T03:37:59;16.40;99.90
50969;DHT22;36982;51.474;7.228;2022-07-22T03:40:25;16.40;99.90
50969;DHT22;36982;51.474;7.228;2022-07-22T03:42:51;16.40;99.90
50969;DHT22;36982;51.474;7.228;2022-07-22T03:45:16;16.40;99.90
50969;DHT22;36982;51.474;7.228;2022-07-22T03:47:42;16.40;99.90
50969;DHT22;36982;51.474;7.228;2022-07-22T03:50:08;16.40;99.90
50969;DHT22;36982;51.474;7.228;2022-07-22T03:52:34;16.50;99.90
50969;DHT22;36982;51.474;7.228;2022-07-22T03:54:59;16.60;99.90
50969;DHT22;36982;51.474;7.228;2022-07-22T03:57:25;16.50;99.90
50969;DHT22;36982;51.474;7.228;2022-07-22T03:59:51;16.40;99.90
50969;DHT22;36982;51.474;7.228;2022-07-22T04:02:16;16.40;99.90
50969;DHT22;36982;51.474;7.228;2022-07-22T04:04:43;16.50;99.90
50969;DHT22;36982;51.474;7.228;2022-07-22T04:07:09;16.50;99.90
50969;DHT22;36982;51.474;7.228;2022-07-22T04:09:35;16.50;99.90
50969;DHT22;36982;51.474;7.228;2022-07-22T04:12:00;16.60;99.90
50969;DHT22;36982;51.474;7.228;2022-07-22T04:14:26;16.70;99.90
50969;DHT22;36982;51.474;7.228;2022-07-22T04:16:52;16.70;99.90
50969;DHT22;36982;51.474;7.228;2022-07-22T04:19:17;16.70;99.90
50969;DHT22;36982;51.474;7.228;2022-07-22T04:21:43;16.80;99.90
50969;DHT22;36982;51.474;7.228;2022-07-22T04:24:09;16.80;99.90
50969;DHT22;36982;51.474;7.228;2022-07-22T04:26:34;16.90;99.90
50969;DHT22;36982;51.474;7.228;2022-07-22T04:29:02;16.90;99.90
50969;DHT22;36982;51.474;7.228;2022-07-22T04:31:27;16.90;99.90
50969;DHT22;36982;51.474;7.228;2022-07-22T04:33:53;16.90;99.90
50969;DHT22;36982;51.474;7.228;2022-07-22T04:36:19;16.80;99.90
50969;DHT22;36982;51.474;7.228;2022-07-22T04:38:44;16.70;99.90
50969;DHT22;36982;51.474;7.228;2022-07-22T04:41:10;16.70;99.90
50969;DHT22;36982;51.474;7.228;2022-07-22T04:43:35;16.70;99.90
50969;DHT22;36982;51.474;7.228;2022-07-22T04:46:01;16.70;99.90
50969;DHT22;36982;51.474;7.228;2022-07-22T04:48:27;16.60;99.90
50969;DHT22;36982;51.474;7.228;2022-07-22T04:50:52;16.60;99.90
50969;DHT22;36982;51.474;7.228;2022-07-22T04:53:18;16.70;99.90
50969;DHT22;36982;51.474;7.228;2022-07-22T04:55:44;16.70;99.90
50969;DHT22;36982;51.474;7.228;2022-07-22T04:58:09;16.60;99.90
50969;DHT22;36982;51.474;7.228;2022-07-22T05:00:35;16.70;99.90
50969;DHT22;36982;51.474;7.228;2022-07-22T05:03:01;16.60;99.90
50969;DHT22;36982;51.474;7.228;2022-07-22T05:05:26;16.50;99.90
50969;DHT22;36982;51.474;7.228;2022-07-22T05:07:52;16.60;99.90
50969;DHT22;36982;51.474;7.228;2022-07-22T05:10:18;16.70;99.90
50969;DHT22;36982;51.474;7.228;2022-07-22T05:12:43;16.90;99.90
50969;DHT22;36982;51.474;7.228;2022-07-22T05:15:09;16.90;99.90
50969;DHT22;36982;51.474;7.228;2022-07-22T05:17:35;17.00;99.90
50969;DHT22;36982;51.474;7.228;2022-07-22T05:20:04;17.10;99.90
50969;DHT22;36982;51.474;7.228;2022-07-22T05:22:30;17.20;99.90
50969;DHT22;36982;51.474;7.228;2022-07-22T05:24:56;17.10;99.90
50969;DHT22;36982;51.474;7.228;2022-07-22T05:27:22;16.90;99.90
50969;DHT22;36982;51.474;7.228;2022-07-22T05:29:47;16.80;99.90
50969;DHT22;36982;51.474;7.228;2022-07-22T05:32:14;16.90;99.90
50969;DHT22;36982;51.474;7.228;2022-07-22T05:34:39;17.00;99.90
50969;DHT22;36982;51.474;7.228;2022-07-22T05:37:05;17.10;99.90
50969;DHT22;36982;51.474;7.228;2022-07-22T05:39:31;17.30;99.90
50969;DHT22;36982;51.474;7.228;2022-07-22T05:41:56;17.20;99.90
50969;DHT22;36982;51.474;7.228;2022-07-22T05:44:22;17.30;99.90
50969;DHT22;36982;51.474;7.228;2022-07-22T05:46:47;17.40;99.90
50969;DHT22;36982;51.474;7.228;2022-07-22T05:49:13;17.40;99.90
50969;DHT22;36982;51.474;7.228;2022-07-22T05:51:39;17.20;99.90
50969;DHT22;36982;51.474;7.228;2022-07-22T05:54:04;17.10;99.90
50969;DHT22;36982;51.474;7.228;2022-07-22T05:56:30;17.10;99.90
50969;DHT22;36982;51.474;7.228;2022-07-22T05:58:56;17.10;99.90
50969;DHT22;36982;51.474;7.228;2022-07-22T06:01:22;17.00;99.90
50969;DHT22;36982;51.474;7.228;2022-07-22T06:03:47;17.10;99.90
50969;DHT22;36982;51.474;7.228;2022-07-22T06:06:13;17.10;99.90
50969;DHT22;36982;51.474;7.228;2022-07-22T06:08:39;17.20;99.90
50969;DHT22;36982;51.474;7.228;2022-07-22T06:11:05;17.10;99.90
50969;DHT22;36982;51.474;7.228;2022-07-22T06:13:31;17.10;99.90
50969;DHT22;36982;51.474;7.228;2022-07-22T06:15:58;16.80;99.90
50969;DHT22;36982;51.474;7.228;2022-07-22T06:18:24;16.80;99.90
50969;DHT22;36982;51.474;7.228;2022-07-22T06:20:49;16.70;99.90
50969;DHT22;36982;51.474;7.228;2022-07-22T06:23:15;16.70;99.90
50969;DHT22;36982;51.474;7.228;2022-07-22T06:25:41;16.70;99.90
50969;DHT22;36982;51.474;7.228;2022-07-22T06:28:06;16.80;99.90
50969;DHT22;36982;51.474;7.228;2022-07-22T06:30:32;16.80;99.90
50969;DHT22;36982;51.474;7.228;2022-07-22T06:32:57;17.00;99.90
50969;DHT22;36982;51.474;7.228;2022-07-22T06:35:23;17.10;99.90
50969;DHT22;36982;51.474;7.228;2022-07-22T06:37:53;17.20;99.90
50969;DHT22;36982;51.474;7.228;2022-07-22T06:40:19;17.20;99.90
50969;DHT22;36982;51.474;7.228;2022-07-22T06:42:45;17.20;99.90
50969;DHT22;36982;51.474;7.228;2022-07-22T06:45:11;17.20;99.90
50969;DHT22;36982;51.474;7.228;2022-07-22T06:47:37;17.30;99.90
50969;DHT22;36982;51.474;7.228;2022-07-22T06:50:04;17.20;99.90
50969;DHT22;36982;51.474;7.228;2022-07-22T06:52:30;17.30;99.90
50969;DHT22;36982;51.474;7.228;2022-07-22T06:54:55;17.50;99.90
50969;DHT22;36982;51.474;7.228;2022-07-22T06:57:21;17.60;99.90
50969;DHT22;36982;51.474;7.228;2022-07-22T06:59:47;17.70;99.90
50969;DHT22;36982;51.474;7.228;2022-07-22T07:02:12;17.70;99.90
50969;DHT22;36982;51.474;7.228;2022-07-22T07:04:38;17.50;99.90
50969;DHT22;36982;51.474;7.228;2022-07-22T07:07:04;17.40;99.90
50969;DHT22;36982;51.474;7.228;2022-07-22T07:09:29;17.30;99.90
50969;DHT22;36982;51.474;7.228;2022-07-22T07:11:55;17.20;99.90
50969;DHT22;36982;51.474;7.228;2022-07-22T07:14:21;17.50;99.90
50969;DHT22;36982;51.474;7.228;2022-07-22T07:16:47;17.60;99.90
50969;DHT22;36982;51.474;7.228;2022-07-22T07:19:12;17.80;99.90
50969;DHT22;36982;51.474;7.228;2022-07-22T07:21:38;17.90;99.90
50969;DHT22;36982;51.474;7.228;2022-07-22T07:24:04;18.00;99.90
50969;DHT22;36982;51.474;7.228;2022-07-22T07:26:30;18.10;99.90
50969;DHT22;36982;51.474;7.228;2022-07-22T07:28:56;18.00;99.90
50969;DHT22;36982;51.474;7.228;2022-07-22T07:31:22;18.10;99.90
50969;DHT22;36982;51.474;7.228;2022-07-22T07:33:47;17.90;99.90
50969;DHT22;36982;51.474;7.228;2022-07-22T07:36:13;17.80;99.90
50969;DHT22;36982;51.474;7.228;2022-07-22T07:38:40;17.80;99.90
50969;DHT22;36982;51.474;7.228;2022-07-22T07:41:05;17.90;99.90
50969;DHT22;36982;51.474;7.228;2022-07-22T07:43:32;18.00;99.90
50969;DHT22;36982;51.474;7.228;2022-07-22T07:45:57;18.10;99.90
50969;DHT22;36982;51.474;7.228;2022-07-22T07:48:23;18.20;99.90
50969;DHT22;36982;51.474;7.228;2022-07-22T07:50:49;18.20;99.90
50969;DHT22;36982;51.474;7.228;2022-07-22T07:53:16;18.10;99.90
50969;DHT22;36982;51.474;7.228;2022-07-22T07:55:41;18.00;99.90
50969;DHT22;36982;51.474;7.228;2022-07-22T07:58:07;18.20;99.90
50969;DHT22;36982;51.474;7.228;2022-07-22T08:00:33;18.10;99.90
50969;DHT22;36982;51.474;7.228;2022-07-22T08:03:00;18.20;99.90
50969;DHT22;36982;51.474;7.228;2022-07-22T08:05:26;18.30;99.90
50969;DHT22;36982;51.474;7.228;2022-07-22T08:07:52;18.60;99.90
50969;DHT22;36982;51.474;7.228;2022-07-22T08:10:18;18.60;99.90
50969;DHT22;36982;51.474;7.228;2022-07-22T08:12:44;18.40;99.90
50969;DHT22;36982;51.474;7.228;2022-07-22T08:15:10;18.20;99.90
50969;DHT22;36982;51.474;7.228;2022-07-22T08:17:36;18.10;99.90
50969;DHT22;36982;51.474;7.228;2022-07-22T08:20:03;17.90;99.90
50969;DHT22;36982;51.474;7.228;2022-07-22T08:22:29;17.90;99.90
50969;DHT22;36982;51.474;7.228;2022-07-22T08:24:54;17.90;99.90
50969;DHT22;36982;51.474;7.228;2022-07-22T08:27:20;18.10;99.90
50969;DHT22;36982;51.474;7.228;2022-07-22T08:29:46;18.30;99.90
50969;DHT22;36982;51.474;7.228;2022-07-22T08:32:11;18.30;99.90
50969;DHT22;36982;51.474;7.228;2022-07-22T08:34:37;18.30;99.90
50969;DHT22;36982;51.474;7.228;2022-07-22T08:37:03;18.50;99.90
50969;DHT22;36982;51.474;7.228;2022-07-22T08:39:29;18.60;99.90
50969;DHT22;36982;51.474;7.228;2022-07-22T08:41:55;18.80;99.90
50969;DHT22;36982;51.474;7.228;2022-07-22T08:44:22;18.90;99.90
50969;DHT22;36982;51.474;7.228;2022-07-22T08:46:47;18.90;99.90
50969;DHT22;36982;51.474;7.228;2022-07-22T08:49:15;19.00;99.90
50969;DHT22;36982;51.474;7.228;2022-07-22T08:51:41;19.00;99.90
50969;DHT22;36982;51.474;7.228;2022-07-22T08:54:07;18.80;99.90
50969;DHT22;36982;51.474;7.228;2022-07-22T08:56:32;19.00;99.90
50969;DHT22;36982;51.474;7.228;2022-07-22T08:58:58;19.00;99.90
50969;DHT22;36982;51.474;7.228;2022-07-22T09:01:24;18.90;99.90
50969;DHT22;36982;51.474;7.228;2022-07-22T09:06:20;19.10;99.90
50969;DHT22;36982;51.474;7.228;2022-07-22T09:08:57;19.20;99.90
50969;DHT22;36982;51.474;7.228;2022-07-22T09:11:25;19.20;99.90
50969;DHT22;36982;51.474;7.228;2022-07-22T09:13:52;19.10;99.90
50969;DHT22;36982;51.474;7.228;2022-07-22T09:16:47;19.00;99.90
50969;DHT22;36982;51.474;7.228;2022-07-22T09:19:13;18.80;99.90
50969;DHT22;36982;51.474;7.228;2022-07-22T09:21:44;18.60;99.90
50969;DHT22;36982;51.474;7.228;2022-07-22T09:24:28;18.70;99.90
50969;DHT22;36982;51.474;7.228;2022-07-22T09:26:55;18.60;99.90
50969;DHT22;36982;51.474;7.228;2022-07-22T09:29:22;18.50;99.90
50969;DHT22;36982;51.474;7.228;2022-07-22T09:31:51;18.50;99.90
50969;DHT22;36982;51.474;7.228;2022-07-22T09:34:33;18.40;99.90
50969;DHT22;36982;51.474;7.228;2022-07-22T09:37:00;18.50;99.90
50969;DHT22;36982;51.474;7.228;2022-07-22T09:39:28;18.50;99.90
50969;DHT22;36982;51.474;7.228;2022-07-22T09:42:04;18.60;99.90
50969;DHT22;36982;51.474;7.228;2022-07-22T09:44:31;18.70;99.90
50969;DHT22;36982;51.474;7.228;2022-07-22T09:46:56;18.80;99.90
50969;DHT22;36982;51.474;7.228;2022-07-22T09:49:33;18.90;99.90
50969;DHT22;36982;51.474;7.228;2022-07-22T09:52:00;18.90;99.90
50969;DHT22;36982;51.474;7.228;2022-07-22T09:54:28;19.10;99.90
50969;DHT22;36982;51.474;7.228;2022-07-22T09:56:55;19.30;99.90
50969;DHT22;36982;51.474;7.228;2022-07-22T09:59:20;19.40;99.90
50969;DHT22;36982;51.474;7.228;2022-07-22T10:01:47;19.60;99.90
50969;DHT22;36982;51.474;7.228;2022-07-22T10:04:15;19.50;99.90
50969;DHT22;36982;51.474;7.228;2022-07-22T10:06:44;19.30;99.90
50969;DHT22;36982;51.474;7.228;2022-07-22T10:09:11;19.30;99.90
50969;DHT22;36982;51.474;7.228;2022-07-22T10:11:39;19.50;99.90
50969;DHT22;36982;51.474;7.228;2022-07-22T10:14:11;19.60;99.90
50969;DHT22;36982;51.474;7.228;2022-07-22T10:16:37;19.60;99.90
50969;DHT22;36982;51.474;7.228;2022-07-22T10:19:03;19.70;99.90
50969;DHT22;36982;51.474;7.228;2022-07-22T10:21:33;19.90;99.90
50969;DHT22;36982;51.474;7.228;2022-07-22T10:26:51;20.30;99.90
50969;DHT22;36982;51.474;7.228;2022-07-22T10:29:25;20.20;99.90
50969;DHT22;36982;51.474;7.228;2022-07-22T10:34:42;19.80;99.90
50969;DHT22;36982;51.474;7.228;2022-07-22T10:48:00;20.30;99.90
50969;DHT22;36982;51.474;7.228;2022-07-22T10:53:05;20.40;99.90
50969;DHT22;36982;51.474;7.228;2022-07-22T10:55:31;20.40;99.90
50969;DHT22;36982;51.474;7.228;2022-07-22T10:57:56;20.00;99.90
50969;DHT22;36982;51.474;7.228;2022-07-22T11:00:22;20.10;99.90
50969;DHT22;36982;51.474;7.228;2022-07-22T11:02:48;20.30;99.90
50969;DHT22;36982;51.474;7.228;2022-07-22T11:05:14;20.60;99.90
50969;DHT22;36982;51.474;7.228;2022-07-22T11:07:43;20.80;99.90
50969;DHT22;36982;51.474;7.228;2022-07-22T11:10:14;20.70;99.90
50969;DHT22;36982;51.474;7.228;2022-07-22T11:12:40;20.70;99.90
50969;DHT22;36982;51.474;7.228;2022-07-22T11:15:07;20.90;99.90
50969;DHT22;36982;51.474;7.228;2022-07-22T11:17:33;20.60;99.90
50969;DHT22;36982;51.474;7.228;2022-07-22T11:20:04;20.40;99.90
50969;DHT22;36982;51.474;7.228;2022-07-22T11:22:30;20.30;99.90
50969;DHT22;36982;51.474;7.228;2022-07-22T11:24:57;20.20;99.90
50969;DHT22;36982;51.474;7.228;2022-07-22T11:27:25;19.90;99.90
50969;DHT22;36982;51.474;7.228;2022-07-22T11:29:53;19.90;99.90
50969;DHT22;36982;51.474;7.228;2022-07-22T11:32:21;19.80;99.90
50969;DHT22;36982;51.474;7.228;2022-07-22T11:34:47;20.00;99.90
50969;DHT22;36982;51.474;7.228;2022-07-22T11:37:14;20.10;99.90
50969;DHT22;36982;51.474;7.228;2022-07-22T11:39:40;20.10;99.90
50969;DHT22;36982;51.474;7.228;2022-07-22T11:42:06;20.30;99.90
50969;DHT22;36982;51.474;7.228;2022-07-22T11:44:35;20.40;99.90
50969;DHT22;36982;51.474;7.228;2022-07-22T11:47:02;20.50;99.90
50969;DHT22;36982;51.474;7.228;2022-07-22T11:49:31;20.40;99.90
50969;DHT22;36982;51.474;7.228;2022-07-22T11:51:59;20.30;99.90
50969;DHT22;36982;51.474;7.228;2022-07-22T11:54:25;20.30;99.90
50969;DHT22;36982;51.474;7.228;2022-07-22T11:56:50;20.60;99.90
50969;DHT22;36982;51.474;7.228;2022-07-22T11:59:16;20.90;99.90
50969;DHT22;36982;51.474;7.228;2022-07-22T12:01:46;21.10;99.90
50969;DHT22;36982;51.474;7.228;2022-07-22T12:04:21;21.00;99.90
50969;DHT22;36982;51.474;7.228;2022-07-22T12:06:48;20.80;99.90
50969;DHT22;36982;51.474;7.228;2022-07-22T12:09:16;20.80;99.90
50969;DHT22;36982;51.474;7.228;2022-07-22T12:11:45;20.80;99.90
50969;DHT22;36982;51.474;7.228;2022-07-22T12:14:15;21.20;99.90
50969;DHT22;36982;51.474;7.228;2022-07-22T12:16:42;21.50;99.90
50969;DHT22;36982;51.474;7.228;2022-07-22T12:19:13;21.30;99.90
50969;DHT22;36982;51.474;7.228;2022-07-22T12:24:33;21.70;99.90
50969;DHT22;36982;51.474;7.228;2022-07-22T12:27:02;21.90;99.90
50969;DHT22;36982;51.474;7.228;2022-07-22T12:29:46;22.10;99.90
50969;DHT22;36982;51.474;7.228;2022-07-22T12:32:24;22.20;99.90
50969;DHT22;36982;51.474;7.228;2022-07-22T12:34:58;22.10;99.90
50969;DHT22;36982;51.474;7.228;2022-07-22T12:38:04;21.70;99.90
50969;DHT22;36982;51.474;7.228;2022-07-22T12:40:20;21.70;99.90
50969;DHT22;36982;51.474;7.228;2022-07-22T12:45:27;22.00;99.90
50969;DHT22;36982;51.474;7.228;2022-07-22T12:51:10;22.50;99.90
50969;DHT22;36982;51.474;7.228;2022-07-22T12:53:13;22.60;99.90
50969;DHT22;36982;51.474;7.228;2022-07-22T12:55:41;22.40;99.90
50969;DHT22;36982;51.474;7.228;2022-07-22T12:58:08;22.40;99.30
50969;DHT22;36982;51.474;7.228;2022-07-22T13:00:39;22.50;99.90
50969;DHT22;36982;51.474;7.228;2022-07-22T13:03:05;22.50;99.90
50969;DHT22;36982;51.474;7.228;2022-07-22T13:05:31;22.40;99.30
50969;DHT22;36982;51.474;7.228;2022-07-22T13:07:57;22.20;99.20
50969;DHT22;36982;51.474;7.228;2022-07-22T13:10:24;22.10;99.90
50969;DHT22;36982;51.474;7.228;2022-07-22T13:12:51;22.20;99.90
50969;DHT22;36982;51.474;7.228;2022-07-22T13:15:16;22.30;99.90
50969;DHT22;36982;51.474;7.228;2022-07-22T13:17:43;22.20;99.90
50969;DHT22;36982;51.474;7.228;2022-07-22T13:20:10;22.00;99.90
50969;DHT22;36982;51.474;7.228;2022-07-22T13:22:37;22.10;99.50
50969;DHT22;36982;51.474;7.228;2022-07-22T13:25:04;22.10;99.50
50969;DHT22;36982;51.474;7.228;2022-07-22T13:27:29;22.10;99.90
50969;DHT22;36982;51.474;7.228;2022-07-22T13:29:55;21.80;99.90
50969;DHT22;36982;51.474;7.228;2022-07-22T13:32:21;21.40;99.90
50969;DHT22;36982;51.474;7.228;2022-07-22T13:34:46;21.30;99.90
50969;DHT22;36982;51.474;7.228;2022-07-22T13:37:12;21.40;99.90
50969;DHT22;36982;51.474;7.228;2022-07-22T13:39:38;21.50;99.90
50969;DHT22;36982;51.474;7.228;2022-07-22T13:42:06;21.60;99.90
50969;DHT22;36982;51.474;7.228;2022-07-22T13:44:32;21.80;99.90
50969;DHT22;36982;51.474;7.228;2022-07-22T13:46:59;21.90;99.90
50969;DHT22;36982;51.474;7.228;2022-07-22T13:49:25;21.90;99.90
50969;DHT22;36982;51.474;7.228;2022-07-22T13:51:51;22.10;99.50
50969;DHT22;36982;51.474;7.228;2022-07-22T13:54:18;22.30;99.40
50969;DHT22;36982;51.474;7.228;2022-07-22T13:56:44;22.60;99.90
50969;DHT22;36982;51.474;7.228;2022-07-22T13:59:13;22.80;99.50
50969;DHT22;36982;51.474;7.228;2022-07-22T14:01:38;22.50;99.10
50969;DHT22;36982;51.474;7.228;2022-07-22T14:04:04;22.00;98.90
50969;DHT22;36982;51.474;7.228;2022-07-22T14:06:32;21.80;99.90
50969;DHT22;36982;51.474;7.228;2022-07-22T14:08:57;21.90;99.40
50969;DHT22;36982;51.474;7.228;2022-07-22T14:11:23;22.10;99.00
50969;DHT22;36982;51.474;7.228;2022-07-22T14:13:48;22.10;99.60
50969;DHT22;36982;51.474;7.228;2022-07-22T14:16:14;21.90;99.90
50969;DHT22;36982;51.474;7.228;2022-07-22T14:18:59;22.20;99.90
50969;DHT22;36982;51.474;7.228;2022-07-22T14:21:25;22.60;99.60
50969;DHT22;36982;51.474;7.228;2022-07-22T14:23:51;22.50;98.90
50969;DHT22;36982;51.474;7.228;2022-07-22T14:26:16;22.30;99.20
50969;DHT22;36982;51.474;7.228;2022-07-22T14:28:42;22.10;99.40
50969;DHT22;36982;51.474;7.228;2022-07-22T14:31:08;22.10;99.50
50969;DHT22;36982;51.474;7.228;2022-07-22T14:33:33;22.20;99.70
50969;DHT22;36982;51.474;7.228;2022-07-22T14:35:59;22.30;99.90
50969;DHT22;36982;51.474;7.228;2022-07-22T14:38:25;22.60;99.90
50969;DHT22;36982;51.474;7.228;2022-07-22T14:40:51;22.80;99.90
50969;DHT22;36982;51.474;7.228;2022-07-22T14:43:16;23.10;99.90
50969;DHT22;36982;51.474;7.228;2022-07-22T14:45:42;23.10;98.70
50969;DHT22;36982;51.474;7.228;2022-07-22T14:48:07;23.10;99.00
50969;DHT22;36982;51.474;7.228;2022-07-22T14:50:33;22.90;97.80
50969;DHT22;36982;51.474;7.228;2022-07-22T14:52:59;22.40;98.40
50969;DHT22;36982;51.474;7.228;2022-07-22T14:55:25;22.40;98.60
50969;DHT22;36982;51.474;7.228;2022-07-22T14:57:50;22.50;99.90
50969;DHT22;36982;51.474;7.228;2022-07-22T15:00:16;22.30;98.60
50969;DHT22;36982;51.474;7.228;2022-07-22T15:02:42;22.20;98.20
50969;DHT22;36982;51.474;7.228;2022-07-22T15:05:08;22.10;98.40
50969;DHT22;36982;51.474;7.228;2022-07-22T15:07:34;22.30;98.40
50969;DHT22;36982;51.474;7.228;2022-07-22T15:10:00;22.40;98.40
50969;DHT22;36982;51.474;7.228;2022-07-22T15:12:25;22.20;97.90
50969;DHT22;36982;51.474;7.228;2022-07-22T15:14:51;22.10;99.10
50969;DHT22;36982;51.474;7.228;2022-07-22T15:17:16;22.30;99.60
50969;DHT22;36982;51.474;7.228;2022-07-22T15:19:42;22.50;99.00
50969;DHT22;36982;51.474;7.228;2022-07-22T15:22:09;22.60;98.90
50969;DHT22;36982;51.474;7.228;2022-07-22T15:24:35;22.60;97.80
50969;DHT22;36982;51.474;7.228;2022-07-22T15:27:00;22.30;98.00
50969;DHT22;36982;51.474;7.228;2022-07-22T15:29:26;22.10;98.80
50969;DHT22;36982;51.474;7.228;2022-07-22T15:31:52;22.10;98.70
50969;DHT22;36982;51.474;7.228;2022-07-22T15:34:17;22.20;98.50
50969;DHT22;36982;51.474;7.228;2022-07-22T15:36:44;22.30;98.10
50969;DHT22;36982;51.474;7.228;2022-07-22T15:39:10;22.50;99.00
50969;DHT22;36982;51.474;7.228;2022-07-22T15:41:36;22.70;98.90
50969;DHT22;36982;51.474;7.228;2022-07-22T15:44:03;22.80;97.80
50969;DHT22;36982;51.474;7.228;2022-07-22T15:46:29;22.80;97.30
50969;DHT22;36982;51.474;7.228;2022-07-22T15:48:55;22.70;97.80
50969;DHT22;36982;51.474;7.228;2022-07-22T15:51:20;22.90;97.60
50969;DHT22;36982;51.474;7.228;2022-07-22T15:53:46;22.60;96.90
50969;DHT22;36982;51.474;7.228;2022-07-22T15:56:12;22.60;97.80